createdAt,value
2022-10-10T00:01:32.223Z,9.27
2022-10-10T00:04:19.424Z,9.95
2022-10-10T00:07:06.625Z,10.30
2022-10-10T00:09:58.409Z,10.05
2022-10-10T00:12:45.685Z,9.98
2022-10-10T00:15:33.210Z,9.30
2022-10-10T00:18:22.554Z,9.95
2022-10-10T00:21:10.954Z,10.02
2022-10-10T00:23:58.192Z,8.85
2022-10-10T00:26:45.406Z,9.80
2022-10-10T00:29:34.773Z,8.68
2022-10-10T00:32:22.253Z,9.20
2022-10-10T00:35:10.987Z,9.27
2022-10-10T00:38:00.413Z,8.93
2022-10-10T00:40:54.388Z,10.23
2022-10-10T00:43:41.613Z,9.88
2022-10-10T00:46:30.776Z,9.68
2022-10-10T00:49:20.777Z,10.45
2022-10-10T00:52:13.269Z,9.82
2022-10-10T00:55:00.332Z,11.05
2022-10-10T00:57:48.203Z,10.73
2022-10-10T01:00:38.043Z,9.45
2022-10-10T01:03:32.637Z,10.43
2022-10-10T01:06:22.015Z,9.93
2022-10-10T01:09:11.890Z,8.98
2022-10-10T01:12:23.273Z,9.57
2022-10-10T01:15:59.509Z,9.60
2022-10-10T01:19:04.211Z,9.20
2022-10-10T01:22:02.242Z,8.60
2022-10-10T01:25:28.748Z,8.48
2022-10-10T01:28:57.032Z,8.90
2022-10-10T01:31:47.551Z,9.82
2022-10-10T01:35:21.167Z,9.52
2022-10-10T01:41:55.817Z,10.02
2022-10-10T01:44:47.671Z,10.55
2022-10-10T01:47:36.126Z,10.87
2022-10-10T01:50:42.748Z,10.60
2022-10-10T01:53:48.824Z,9.75
2022-10-10T01:57:14.401Z,11.38
2022-10-10T02:00:17.333Z,10.82
2022-10-10T02:06:15.607Z,11.07
2022-10-10T02:09:10.099Z,12.10
2022-10-10T02:11:59.782Z,12.35
2022-10-10T02:14:51.874Z,11.20
2022-10-10T02:17:43.712Z,12.00
2022-10-10T02:20:32.162Z,11.67
2022-10-10T02:23:21.797Z,10.43
2022-10-10T02:26:12.359Z,11.90
2022-10-10T02:29:18.210Z,11.50
2022-10-10T02:32:31.501Z,11.38
2022-10-10T02:35:23.766Z,11.38
2022-10-10T02:38:14.243Z,11.07
2022-10-10T02:41:04.480Z,11.00
2022-10-10T02:43:52.623Z,11.50
2022-10-10T02:46:42.545Z,10.65
2022-10-10T02:49:32.354Z,10.80
2022-10-10T02:52:24.249Z,10.55
2022-10-10T02:55:13.731Z,11.43
2022-10-10T02:58:01.835Z,11.13
2022-10-10T03:00:51.354Z,12.20
2022-10-10T03:03:38.628Z,12.02
2022-10-10T03:06:48.231Z,11.48
2022-10-10T03:09:35.299Z,11.23
2022-10-10T03:12:24.702Z,10.80
2022-10-10T03:15:16.472Z,11.65
2022-10-10T03:18:03.788Z,11.13
2022-10-10T03:20:55.950Z,11.00
2022-10-10T03:23:45.387Z,7.40
2022-10-10T03:26:32.919Z,10.27
2022-10-10T03:29:33.539Z,9.63
2022-10-10T03:32:25.255Z,10.98
2022-10-10T03:35:14.868Z,10.68
2022-10-10T03:38:04.815Z,10.88
2022-10-10T03:40:51.897Z,10.38
2022-10-10T03:46:16.215Z,10.27
2022-10-10T03:49:06.910Z,10.52
2022-10-10T03:51:54.631Z,10.75
2022-10-10T03:54:43.100Z,10.90
2022-10-10T03:57:35.343Z,10.80
2022-10-10T04:00:22.548Z,10.43
2022-10-10T04:03:09.848Z,10.60
2022-10-10T04:06:06.327Z,11.07
2022-10-10T04:08:53.666Z,10.27
2022-10-10T04:11:40.991Z,9.93
2022-10-10T04:14:30.339Z,10.10
2022-10-10T04:17:17.528Z,9.90
2022-10-10T04:20:20.126Z,10.23
2022-10-10T04:23:07.214Z,9.40
2022-10-10T04:25:56.794Z,10.57
2022-10-10T04:28:46.423Z,11.05
2022-10-10T04:31:33.890Z,10.70
2022-10-10T04:34:20.951Z,10.05
2022-10-10T04:37:08.068Z,10.35
2022-10-10T04:39:55.223Z,10.38
2022-10-10T04:42:42.357Z,10.38
2022-10-10T04:45:37.314Z,11.05
2022-10-10T04:48:27.478Z,9.68
2022-10-10T04:51:19.315Z,10.07
2022-10-10T04:54:06.546Z,10.43
2022-10-10T04:56:53.623Z,10.93
2022-10-10T04:59:45.595Z,10.52
2022-10-10T05:02:40.735Z,10.23
2022-10-10T05:05:28.008Z,10.35
2022-10-10T05:08:16.691Z,10.93
2022-10-10T05:11:03.777Z,10.52
2022-10-10T05:13:51.031Z,9.73
2022-10-10T05:16:48.811Z,10.23
2022-10-10T05:19:35.915Z,9.70
2022-10-10T05:22:23.255Z,10.45
2022-10-10T05:25:10.798Z,10.43
2022-10-10T05:28:02.299Z,10.25
2022-10-10T05:30:53.515Z,10.43
2022-10-10T05:33:44.688Z,10.10
2022-10-10T05:36:34.513Z,9.32
2022-10-10T05:39:24.148Z,10.75
2022-10-10T05:42:16.721Z,10.73
2022-10-10T06:00:15.131Z,12.90
2022-10-10T06:03:56.461Z,11.55
2022-10-10T06:06:53.434Z,11.75
2022-10-10T06:09:49.236Z,14.63
2022-10-10T06:12:39.371Z,11.73
2022-10-10T06:24:14.350Z,10.55
2022-10-10T06:28:46.043Z,8.80
2022-10-10T06:50:18.010Z,8.23
2022-10-10T06:53:06.230Z,8.90
2022-10-10T06:55:55.175Z,7.95
2022-10-10T06:58:44.834Z,7.95
2022-10-10T07:01:32.144Z,8.25
2022-10-10T07:04:19.507Z,9.40
2022-10-10T07:07:06.859Z,8.25
2022-10-10T07:09:53.953Z,9.07
2022-10-10T07:12:44.809Z,8.15
2022-10-10T07:15:32.616Z,8.50
2022-10-10T07:18:34.110Z,8.35
2022-10-10T07:21:23.845Z,8.10
2022-10-10T07:24:11.033Z,8.02
2022-10-10T07:27:04.790Z,7.63
2022-10-10T07:29:56.356Z,7.30
2022-10-10T07:32:45.436Z,7.40
2022-10-10T07:35:52.932Z,7.70
2022-10-10T07:38:41.092Z,7.50
2022-10-10T07:41:28.196Z,7.28
2022-10-10T07:44:18.154Z,6.95
2022-10-10T07:47:05.470Z,6.70
2022-10-10T07:49:55.466Z,6.50
2022-10-10T07:52:42.794Z,5.95
2022-10-10T07:55:31.472Z,6.95
2022-10-10T07:58:21.172Z,5.75
2022-10-10T08:01:12.905Z,5.60
2022-10-10T08:04:02.670Z,5.80
2022-10-10T08:06:49.862Z,5.70
2022-10-10T08:09:37.322Z,5.53
2022-10-10T08:12:43.247Z,5.63
2022-10-10T08:15:33.805Z,5.90
2022-10-10T08:18:21.478Z,4.78
2022-10-10T08:21:11.317Z,5.05
2022-10-10T08:23:58.523Z,4.68
2022-10-10T08:26:45.775Z,4.07
2022-10-10T08:29:33.448Z,4.13
2022-10-10T08:32:22.735Z,4.28
2022-10-10T08:35:10.100Z,3.63
2022-10-10T08:37:57.270Z,4.30
2022-10-10T08:40:50.631Z,3.90
2022-10-10T08:43:50.153Z,3.85
2022-10-10T08:46:46.819Z,3.83
2022-10-10T08:49:42.462Z,3.72
2022-10-10T08:52:43.318Z,3.67
2022-10-10T08:55:40.099Z,3.65
2022-10-10T08:58:54.230Z,3.65
2022-10-10T09:02:17.843Z,3.88
2022-10-10T09:04:51.140Z,3.30
2022-10-10T09:08:01.949Z,3.28
2022-10-10T09:10:56.070Z,3.30
2022-10-10T09:13:53.646Z,2.83
2022-10-10T09:16:50.508Z,3.13
2022-10-10T09:19:53.092Z,2.97
2022-10-10T09:23:03.143Z,2.75
2022-10-10T09:25:57.685Z,2.50
2022-10-10T09:29:06.913Z,3.20
2022-10-10T09:32:18.478Z,2.47
2022-10-10T09:35:22.828Z,2.25
2022-10-10T09:38:25.062Z,2.70
2022-10-10T09:41:23.225Z,2.10
2022-10-10T09:44:15.208Z,2.30
2022-10-10T09:47:02.663Z,2.50
2022-10-10T09:49:50.154Z,3.13
2022-10-10T09:52:38.049Z,2.80
2022-10-10T09:55:32.549Z,2.50
2022-10-10T09:58:34.341Z,2.72
2022-10-10T10:01:24.655Z,2.20
2022-10-10T10:04:28.744Z,2.40
2022-10-10T10:07:27.570Z,3.20
2022-10-10T10:10:21.239Z,2.35
2022-10-10T10:13:14.809Z,2.53
2022-10-10T10:16:25.824Z,3.10
2022-10-10T10:19:37.730Z,2.80
2022-10-10T10:22:30.445Z,2.40
2022-10-10T10:28:22.614Z,2.47
2022-10-10T10:31:25.093Z,2.80
2022-10-10T10:34:24.296Z,2.97
2022-10-10T10:37:41.498Z,3.03
2022-10-10T10:40:51.593Z,2.83
2022-10-10T10:44:05.325Z,2.60
2022-10-10T10:47:00.084Z,2.90
2022-10-10T10:49:57.644Z,2.70
2022-10-10T10:53:00.772Z,2.88
2022-10-10T10:55:59.209Z,2.92
2022-10-10T10:59:35.724Z,3.47
2022-10-10T11:02:54.971Z,2.97
2022-10-10T11:05:44.143Z,3.53
2022-10-10T11:08:54.765Z,3.00
2022-10-10T11:16:24.384Z,3.22
2022-10-10T11:19:10.990Z,2.80
2022-10-10T11:22:05.186Z,2.60
2022-10-10T11:25:03.716Z,2.53
2022-10-10T11:27:57.969Z,3.05
2022-10-10T11:30:53.061Z,3.35
2022-10-10T11:33:51.680Z,2.70
2022-10-10T11:36:44.161Z,2.95
2022-10-10T11:42:46.546Z,3.05
2022-10-10T11:45:45.694Z,3.08
2022-10-10T11:49:06.172Z,3.03
2022-10-10T11:52:32.339Z,2.85
2022-10-10T11:55:27.153Z,3.13
2022-10-10T11:58:23.577Z,3.15
2022-10-10T12:01:36.688Z,3.92
2022-10-10T12:04:23.976Z,3.00
2022-10-10T12:07:45.477Z,2.85
2022-10-10T12:10:41.628Z,2.95
2022-10-10T12:13:42.027Z,2.90
2022-10-10T12:16:36.105Z,2.70
2022-10-10T12:19:27.710Z,3.25
2022-10-10T12:22:30.053Z,3.03
2022-10-10T12:25:42.577Z,2.53
2022-10-10T12:28:35.814Z,3.00
2022-10-10T12:31:29.229Z,2.88
2022-10-10T12:34:48.525Z,2.88
2022-10-10T12:37:39.415Z,3.67
2022-10-10T12:40:29.398Z,2.75
2022-10-10T12:44:06.656Z,3.60
2022-10-10T12:47:15.979Z,3.28
2022-10-10T12:50:18.484Z,3.20
2022-10-10T12:53:07.903Z,2.75
2022-10-10T12:55:58.202Z,3.05
2022-10-10T12:58:49.515Z,2.78
2022-10-10T13:01:45.470Z,2.80
2022-10-10T13:04:34.003Z,2.63
2022-10-10T13:07:27.694Z,2.97
2022-10-10T13:10:27.302Z,2.75
2022-10-10T13:13:17.909Z,3.95
2022-10-10T13:16:23.891Z,3.17
2022-10-10T13:19:21.004Z,3.05
2022-10-10T13:22:09.093Z,2.70
2022-10-10T13:25:05.084Z,2.95
2022-10-10T13:27:52.310Z,2.70
2022-10-10T13:30:39.726Z,3.08
2022-10-10T13:33:33.809Z,3.13
2022-10-10T13:36:30.585Z,3.00
2022-10-10T13:39:29.206Z,3.13
2022-10-10T13:42:38.512Z,2.72
2022-10-10T13:45:35.484Z,2.67
2022-10-10T13:48:35.187Z,3.25
2022-10-10T13:52:01.667Z,2.70
2022-10-10T13:54:50.183Z,2.97
2022-10-10T13:57:40.542Z,2.92
2022-10-10T14:00:30.609Z,3.75
2022-10-10T14:03:20.295Z,3.00
2022-10-10T14:06:08.200Z,3.17
2022-10-10T14:09:03.063Z,3.05
2022-10-10T14:11:51.626Z,2.47
2022-10-10T14:14:53.549Z,3.42
2022-10-10T14:17:40.688Z,2.72
2022-10-10T14:20:27.822Z,2.65
2022-10-10T14:23:17.350Z,3.20
2022-10-10T14:26:06.643Z,3.10
2022-10-10T14:28:53.924Z,3.35
2022-10-10T14:31:42.029Z,2.70
2022-10-10T14:34:31.620Z,3.28
2022-10-10T14:37:39.155Z,3.00
2022-10-10T14:40:31.671Z,2.97
2022-10-10T14:46:16.869Z,3.03
2022-10-10T14:49:08.668Z,3.08
2022-10-10T14:51:58.049Z,2.78
2022-10-10T14:54:45.120Z,3.53
2022-10-10T14:57:32.263Z,2.92
2022-10-10T15:00:22.063Z,3.28
2022-10-10T15:03:09.480Z,2.88
2022-10-10T15:05:59.409Z,3.35
2022-10-10T15:08:54.013Z,3.40
2022-10-10T15:11:43.634Z,3.13
2022-10-10T15:14:34.812Z,2.90
2022-10-10T15:17:24.781Z,2.45
2022-10-10T15:20:43.993Z,2.85
2022-10-10T15:23:31.245Z,2.75
2022-10-10T15:26:18.597Z,2.63
2022-10-10T15:29:05.837Z,3.30
2022-10-10T15:31:55.041Z,3.13
2022-10-10T15:34:42.233Z,2.97
2022-10-10T15:41:44.683Z,3.42
2022-10-10T15:44:32.105Z,3.35
2022-10-10T15:47:29.158Z,3.40
2022-10-10T15:50:17.668Z,2.60
2022-10-10T15:53:04.880Z,3.28
2022-10-10T15:55:52.029Z,3.17
2022-10-10T15:58:40.378Z,3.20
2022-10-10T16:01:31.685Z,2.60
2022-10-10T16:04:18.849Z,3.30
2022-10-10T16:07:25.516Z,3.08
2022-10-10T16:10:16.045Z,2.92
2022-10-10T16:13:06.166Z,3.33
2022-10-10T16:16:03.011Z,2.65
2022-10-10T16:18:52.654Z,3.35
2022-10-10T16:21:43.546Z,2.85
2022-10-10T16:24:30.889Z,3.15
2022-10-10T16:27:18.578Z,4.13
2022-10-10T16:30:06.928Z,4.30
2022-10-10T16:32:53.969Z,3.90
2022-10-10T16:35:45.657Z,3.90
2022-10-10T16:38:32.753Z,4.87
2022-10-10T16:41:45.949Z,3.72
2022-10-10T16:44:29.695Z,4.20
2022-10-10T16:47:21.570Z,4.50
2022-10-10T16:50:11.796Z,2.97
2022-10-10T16:52:59.591Z,4.35
2022-10-10T16:55:48.860Z,4.18
2022-10-10T16:58:38.094Z,5.38
2022-10-10T17:01:28.145Z,5.03
2022-10-10T17:04:17.830Z,10.07
2022-10-10T17:07:07.196Z,5.97
2022-10-10T17:09:58.915Z,7.10
2022-10-10T17:12:48.295Z,5.87
2022-10-10T17:15:35.582Z,5.47
2022-10-10T17:18:25.359Z,6.40
2022-10-10T17:21:17.661Z,6.78
2022-10-10T17:24:07.260Z,6.70
2022-10-10T17:26:54.417Z,6.68
2022-10-10T17:29:41.636Z,5.70
2022-10-10T17:32:30.982Z,6.20
2022-10-10T17:35:18.220Z,5.20
2022-10-10T17:38:27.846Z,5.57
2022-10-10T17:41:19.452Z,5.85
2022-10-10T17:44:10.975Z,5.43
2022-10-10T17:47:00.302Z,5.38
2022-10-10T17:49:47.704Z,5.45
2022-10-10T17:52:34.890Z,5.40
2022-10-10T17:55:24.686Z,5.30
2022-10-10T17:58:15.156Z,5.05
2022-10-10T18:01:03.877Z,6.00
2022-10-10T18:03:53.639Z,5.70
2022-10-10T18:06:41.450Z,7.55
2022-10-10T18:09:28.681Z,6.53
2022-10-10T18:12:18.584Z,6.20
2022-10-10T18:15:06.166Z,7.68
2022-10-10T18:17:55.626Z,7.47
2022-10-10T18:20:44.894Z,7.38
2022-10-10T18:23:34.853Z,6.93
2022-10-10T18:26:26.859Z,6.43
2022-10-10T18:29:15.007Z,6.15
2022-10-10T18:32:02.306Z,7.10
2022-10-10T18:34:51.737Z,6.18
2022-10-10T18:37:41.198Z,6.82
2022-10-10T18:40:28.328Z,6.72
2022-10-10T18:43:18.273Z,6.45
2022-10-10T18:46:12.898Z,7.22
2022-10-10T18:49:01.576Z,7.65
2022-10-10T18:51:48.926Z,6.13
2022-10-10T18:54:36.873Z,6.18
2022-10-10T18:57:24.178Z,5.20
2022-10-10T19:00:14.055Z,5.15
2022-10-10T19:03:03.169Z,5.25
2022-10-10T19:05:50.425Z,5.63
2022-10-10T19:08:40.676Z,6.00
2022-10-10T19:11:30.210Z,6.50
2022-10-10T19:14:20.972Z,6.57
2022-10-10T19:17:12.097Z,6.15
2022-10-10T19:20:01.940Z,6.10
2022-10-10T19:22:56.297Z,5.38
2022-10-10T19:25:46.721Z,4.97
2022-10-10T19:28:34.998Z,6.22
2022-10-10T19:31:22.503Z,5.75
2022-10-10T19:34:09.616Z,5.95
2022-10-10T19:36:58.415Z,5.82
2022-10-10T19:39:48.140Z,3.85
2022-10-10T19:42:35.538Z,4.30
2022-10-10T19:45:23.153Z,4.03
2022-10-10T19:48:27.219Z,4.28
2022-10-10T19:51:17.487Z,4.40
2022-10-10T19:54:10.938Z,4.55
2022-10-10T19:57:00.805Z,4.18
2022-10-10T19:59:50.204Z,5.22
2022-10-10T20:02:37.613Z,5.53
2022-10-10T20:05:24.721Z,5.72
2022-10-10T20:08:11.928Z,6.13
2022-10-10T20:11:04.894Z,6.75
2022-10-10T20:13:55.677Z,6.63
2022-10-10T20:16:43.227Z,5.53
2022-10-10T20:19:30.527Z,6.30
2022-10-10T20:22:20.418Z,7.45
2022-10-10T20:28:23.871Z,8.82
2022-10-10T20:31:20.304Z,7.07
2022-10-10T20:34:07.646Z,8.23
2022-10-10T20:37:11.524Z,8.38
2022-10-10T20:39:58.724Z,8.35
2022-10-10T20:42:45.967Z,8.32
2022-10-10T20:45:47.215Z,7.80
2022-10-10T20:48:35.157Z,8.65
2022-10-10T20:51:25.656Z,8.40
2022-10-10T20:54:13.094Z,8.63
2022-10-10T20:57:00.392Z,8.07
2022-10-10T20:59:52.206Z,9.32
2022-10-10T21:02:39.536Z,10.33
2022-10-10T21:05:26.761Z,10.77
2022-10-10T21:08:14.865Z,9.60
2022-10-10T21:11:06.761Z,10.98
2022-10-10T21:13:57.313Z,10.00
2022-10-10T21:16:47.232Z,9.90
2022-10-10T21:19:34.423Z,10.25
2022-10-10T21:22:21.835Z,10.60
2022-10-10T21:25:09.142Z,10.27
2022-10-10T21:28:00.890Z,11.02
2022-10-10T21:30:53.532Z,10.32
2022-10-10T21:33:40.743Z,10.15
2022-10-10T21:36:28.692Z,8.13
2022-10-10T21:39:25.517Z,8.85
2022-10-10T21:42:17.427Z,6.70
2022-10-10T21:45:07.947Z,6.05
2022-10-10T21:47:55.113Z,4.82
2022-10-10T21:50:44.544Z,5.75
2022-10-10T21:53:38.763Z,5.22
2022-10-10T21:56:28.532Z,5.70
2022-10-10T21:59:15.748Z,5.53
2022-10-10T22:02:03.048Z,4.85
2022-10-10T22:04:54.642Z,4.43
2022-10-10T22:07:52.044Z,3.75
2022-10-10T22:10:53.631Z,4.07
2022-10-10T22:14:06.495Z,4.43
2022-10-10T22:16:56.357Z,4.32
2022-10-10T22:19:56.501Z,3.95
2022-10-10T22:24:39.326Z,3.88
2022-10-10T22:31:08.332Z,3.97
2022-10-10T22:33:31.201Z,4.35
2022-10-10T22:36:41.745Z,4.35
2022-10-10T23:07:30.030Z,7.45
2022-10-10T23:14:30.643Z,8.98
2022-10-10T23:18:06.575Z,8.55
2022-10-10T23:36:32.592Z,8.38
2022-10-10T23:40:13.336Z,10.13
